Cohasset, Minnesota
Current Conditions -  °F | °C
As of 12:35 PM on Saturday 25 Oct 2014 (Local Time) from KGPZ Reporting Station
Clear Clear  
Wind Chill: 52°   Ceiling: Unl
Heat Index: 52°   Visibility: 10mi
Dew Point: 28°   Wind: 23mph
Humidity: 41%   Direction: 300°WNW
Pressure: 29.96"   Gusts: 31mph
Location:  47.26°N, 93.62°W
Report Text: KGPZ 251735Z AUTO 30020G27KT 10SM CLR 11/M02 A2996 RMK AO1
Loading
Personal Weather Stations






























Interactive Weather Map
Tropical Storm Tracking
New forecast layout! Learn more

10-Day Weather Forecast

Advertisements
Track Severe Weather on mobile